Aérodrome :
LOGIN :

S'inscrire | Disclaimer

   EN    FR    IT 

 










Légende :    VFR   VFR Marginal   IFR   IFR Intensif   IFR Très Intensif
Visi : 
Plafond : 
>= 8 km
>= 3000ft
5 à 8 km
1000 à 3000 ft
1500m à 5 km
500 à 1000 ft
800 à 1500m
200 à 500 ft
< 800m
< 200 ft
Symboles :   Orages  Brouillard  Fortes neiges  Fortes précipitations  Vent > 20 kt
SIGMETs :   Divers  Orages  Givrage  Turbulence  Onde Orograph.  Cendres Volcan.






- Altitude de l'aérodrome : 399 ft
- Code IATA : KIV


LUKK - Chisinau Int.

DERNIER METAR :
  • 261730Z 12004KT 080V180 CAVOK 14/01 Q0996 R08/D NOSIG

METARs EXPIRÉS :
  • 261700Z 13003KT 090V180 CAVOK 14/01 Q0996 R08/D NOSIG
  • 261630Z 21004KT CAVOK 14/01 Q0996 R08/D NOSIG
  • 261600Z 20005KT CAVOK 15/01 Q0996 R08/CLRD// NOSIG
  • 261530Z 19004KT CAVOK 15/01 Q0995 R26/CLRD// NOSIG
  • 261500Z 25006KT CAVOK 16/01 Q0995 R26/CLRD// NOSIG

TAF TAF LUKK
Valide du 26 à 18h jusqu'au 27 à 18h UTC


261720Z 2618/2718 21009KT CAVOK
BECMG 2702/2703 VRB04KT
TEMPO 2703/2709 5000 SHRA BKN035CB
BECMG 2707/2709 34014KT BKN015 BKN030
TEMPO 2709/2717 35016G26KT
TEMPO 2714/2718 4100 RA BKN010 OVC030



MET'MAP, la Météo Aéronautique d'un coup d'oeil ! - Copyright ORBIFLY Décembre 2007 - Disclaimer

ORBIFLY MET'MAP TEAM :

Programmation & Développement : Alexandra Zaïnal
Sur une idée originale de : Baudouin d'Aumeries
Assistance à la programmation : Marc-Olivier Méhu
Soutien technique & logistique : Manuel Goepfert

Contact : metmap@orbifly.com




SOURCES & CREDITS :

   NOAA